createdAt,value
2017-12-20T00:02:01.913Z,6.90
2017-12-20T00:04:28.628Z,6.90
2017-12-20T00:06:54.629Z,6.90
2017-12-20T00:09:20.577Z,6.90
2017-12-20T00:11:46.543Z,7.00
2017-12-20T00:14:12.531Z,7.00
2017-12-20T00:16:38.499Z,6.90
2017-12-20T00:19:04.484Z,7.00
2017-12-20T00:21:31.204Z,7.00
2017-12-20T00:23:57.936Z,7.00
2017-12-20T00:26:23.894Z,7.00
2017-12-20T00:28:50.632Z,7.20
2017-12-20T00:31:17.349Z,7.20
2017-12-20T00:33:43.298Z,7.10
2017-12-20T00:36:10.924Z,7.10
2017-12-20T00:38:36.893Z,7.00
2017-12-20T00:41:02.882Z,7.10
2017-12-20T00:43:29.592Z,6.90
2017-12-20T00:45:55.548Z,6.90
2017-12-20T00:48:21.548Z,7.00
2017-12-20T00:50:47.692Z,7.00
2017-12-20T00:53:14.460Z,7.00
2017-12-20T00:55:40.454Z,7.00
2017-12-20T00:58:07.191Z,7.00
2017-12-20T01:00:33.153Z,7.00
2017-12-20T01:02:59.120Z,7.00
2017-12-20T01:05:25.124Z,6.90
2017-12-20T01:07:51.096Z,6.90
2017-12-20T01:10:17.824Z,6.90
2017-12-20T01:12:44.549Z,6.90
2017-12-20T01:15:10.501Z,6.90
2017-12-20T01:17:36.457Z,7.00
2017-12-20T01:20:02.411Z,7.00
2017-12-20T01:22:29.139Z,7.00
2017-12-20T01:24:55.124Z,7.00
2017-12-20T01:27:21.108Z,7.00
2017-12-20T01:29:47.820Z,7.10
2017-12-20T01:32:13.796Z,7.10
2017-12-20T01:34:39.766Z,7.10
2017-12-20T01:37:05.740Z,7.10
2017-12-20T01:39:31.714Z,7.10
2017-12-20T01:41:57.682Z,7.10
2017-12-20T01:44:23.863Z,7.10
2017-12-20T01:46:49.820Z,7.10
2017-12-20T01:49:15.803Z,7.10
2017-12-20T01:51:41.778Z,6.90
2017-12-20T01:54:07.748Z,7.00
2017-12-20T01:56:33.704Z,6.90
2017-12-20T01:58:59.684Z,7.00
2017-12-20T02:01:25.631Z,7.00
2017-12-20T02:03:52.344Z,7.00
2017-12-20T02:06:18.287Z,7.00
2017-12-20T02:08:44.971Z,7.00
2017-12-20T02:11:10.951Z,7.00
2017-12-20T02:13:36.892Z,7.00
2017-12-20T02:16:02.860Z,6.90
2017-12-20T02:18:28.840Z,7.00
2017-12-20T02:20:54.792Z,7.10
2017-12-20T02:23:20.748Z,7.00
2017-12-20T02:25:47.472Z,7.00
2017-12-20T02:28:13.472Z,7.00
2017-12-20T02:30:39.968Z,7.00
2017-12-20T02:33:18.416Z,7.00
2017-12-20T02:35:44.376Z,7.00
2017-12-20T02:38:11.100Z,7.00
2017-12-20T02:40:37.064Z,7.00
2017-12-20T02:43:03.052Z,7.10
2017-12-20T02:45:29.796Z,7.10
2017-12-20T02:47:56.481Z,7.10
2017-12-20T02:50:22.460Z,7.10
2017-12-20T02:52:49.173Z,7.10
2017-12-20T02:55:15.161Z,7.10
2017-12-20T02:57:41.119Z,7.10
2017-12-20T03:00:07.130Z,7.10
2017-12-20T03:02:33.084Z,7.10
2017-12-20T03:04:59.812Z,7.10
2017-12-20T03:07:25.780Z,7.10
2017-12-20T03:09:51.764Z,7.10
2017-12-20T03:12:18.489Z,7.00
2017-12-20T03:14:44.444Z,7.00
2017-12-20T03:17:10.409Z,7.00
2017-12-20T03:19:36.399Z,7.00
2017-12-20T03:22:02.405Z,7.00
2017-12-20T03:24:28.376Z,7.00
2017-12-20T03:26:54.347Z,7.00
2017-12-20T03:29:20.336Z,7.00
2017-12-20T03:31:53.299Z,7.00
2017-12-20T03:34:19.268Z,7.00
2017-12-20T03:36:45.968Z,7.00
2017-12-20T03:39:11.924Z,7.00
2017-12-20T03:41:38.634Z,7.00
2017-12-20T03:44:05.372Z,7.10
2017-12-20T03:46:31.339Z,7.00
2017-12-20T03:48:57.360Z,7.10
2017-12-20T03:51:23.301Z,7.10
2017-12-20T03:53:49.280Z,7.10
2017-12-20T03:56:16.006Z,7.10
2017-12-20T03:58:41.972Z,7.10
2017-12-20T04:01:07.916Z,7.10
2017-12-20T04:03:33.896Z,7.00
2017-12-20T04:06:00.593Z,7.00
2017-12-20T04:08:26.545Z,6.90
2017-12-20T04:10:53.256Z,7.00
2017-12-20T04:13:19.246Z,6.90
2017-12-20T04:15:45.227Z,7.00
2017-12-20T04:18:11.948Z,7.10
2017-12-20T04:20:37.924Z,7.00
2017-12-20T04:23:03.871Z,7.20
2017-12-20T04:25:29.837Z,7.20
2017-12-20T04:27:56.528Z,7.00
2017-12-20T04:30:22.516Z,7.00
2017-12-20T04:32:48.477Z,7.00
2017-12-20T04:35:14.451Z,7.00
2017-12-20T04:37:40.437Z,6.90
2017-12-20T04:40:06.432Z,6.90
2017-12-20T04:42:32.392Z,7.00
2017-12-20T04:44:59.120Z,7.00
2017-12-20T04:47:25.100Z,7.00
2017-12-20T04:49:51.048Z,7.00
2017-12-20T04:52:17.036Z,7.00
2017-12-20T04:54:43.012Z,7.00
2017-12-20T04:57:09.328Z,6.90
2017-12-20T04:59:35.293Z,6.90
2017-12-20T05:02:01.259Z,7.00
2017-12-20T05:04:27.256Z,6.90
2017-12-20T05:06:53.207Z,6.90
2017-12-20T05:09:19.377Z,6.90
2017-12-20T05:11:45.355Z,6.80
2017-12-20T05:14:11.303Z,6.70
2017-12-20T05:16:38.052Z,6.70
2017-12-20T05:19:04.749Z,6.70
2017-12-20T05:21:30.715Z,6.70
2017-12-20T05:23:57.440Z,6.80
2017-12-20T05:26:24.132Z,6.80
2017-12-20T05:28:50.091Z,6.80
2017-12-20T05:31:16.052Z,6.90
2017-12-20T05:33:42.011Z,6.80
2017-12-20T05:36:07.956Z,6.70
2017-12-20T05:38:34.691Z,6.60
2017-12-20T05:41:00.842Z,6.60
2017-12-20T05:43:26.818Z,6.70
2017-12-20T05:45:52.804Z,6.70
2017-12-20T05:48:18.774Z,6.70
2017-12-20T05:50:44.735Z,6.80
2017-12-20T05:53:11.855Z,6.80
2017-12-20T05:55:38.560Z,6.70
2017-12-20T05:58:04.543Z,6.70
2017-12-20T06:00:30.516Z,6.60
2017-12-20T06:02:56.508Z,6.60
2017-12-20T06:05:22.455Z,6.70
2017-12-20T06:07:48.476Z,6.90
2017-12-20T06:10:14.423Z,7.20
2017-12-20T06:12:41.140Z,6.90
2017-12-20T06:15:07.136Z,6.90
2017-12-20T06:17:33.080Z,6.80
2017-12-20T06:19:59.044Z,6.80
2017-12-20T06:22:25.740Z,6.70
2017-12-20T06:24:51.776Z,6.70
2017-12-20T06:27:17.727Z,6.70
2017-12-20T06:29:44.428Z,6.80
2017-12-20T06:32:10.392Z,6.80
2017-12-20T06:34:36.371Z,6.80
2017-12-20T06:37:02.314Z,6.80
2017-12-20T06:39:29.024Z,6.80
2017-12-20T06:41:55.017Z,6.80
2017-12-20T06:44:20.980Z,6.80
2017-12-20T06:46:46.960Z,6.80
2017-12-20T06:49:12.924Z,6.90
2017-12-20T06:51:39.619Z,6.90
2017-12-20T06:54:05.692Z,6.90
2017-12-20T06:56:31.656Z,7.00
2017-12-20T06:58:57.627Z,6.90
2017-12-20T07:01:23.614Z,6.90
2017-12-20T07:03:49.601Z,7.00
2017-12-20T07:06:15.595Z,6.90
2017-12-20T07:08:41.600Z,6.90
2017-12-20T07:11:07.562Z,7.00
2017-12-20T07:13:34.271Z,7.00
2017-12-20T07:16:00.337Z,6.90
2017-12-20T07:18:26.327Z,7.00
2017-12-20T07:20:52.284Z,7.00
2017-12-20T07:23:18.308Z,7.10
2017-12-20T07:25:44.291Z,7.00
2017-12-20T07:28:12.405Z,6.90
2017-12-20T07:30:38.408Z,6.90
2017-12-20T07:33:05.139Z,7.00
2017-12-20T07:35:31.883Z,7.00
2017-12-20T07:37:57.851Z,7.00
2017-12-20T07:40:23.822Z,7.00
2017-12-20T07:42:50.523Z,7.10
2017-12-20T07:45:16.512Z,7.10
2017-12-20T07:47:42.466Z,7.10
2017-12-20T07:50:08.438Z,7.10
2017-12-20T07:52:34.424Z,7.10
2017-12-20T07:55:00.373Z,7.10
2017-12-20T07:57:26.320Z,7.10
2017-12-20T07:59:52.284Z,7.10
2017-12-20T08:02:18.231Z,7.10
2017-12-20T08:04:44.920Z,7.20
2017-12-20T08:07:10.895Z,7.10
2017-12-20T08:09:36.837Z,7.20
2017-12-20T08:12:02.844Z,7.10
2017-12-20T08:14:28.852Z,7.10
2017-12-20T08:16:55.564Z,7.00
2017-12-20T08:19:22.992Z,7.10
2017-12-20T08:21:49.002Z,7.10
2017-12-20T08:24:14.986Z,7.10
2017-12-20T08:26:40.924Z,7.20
2017-12-20T08:29:07.114Z,7.20
2017-12-20T08:31:33.084Z,7.10
2017-12-20T08:33:59.062Z,7.10
2017-12-20T08:36:25.052Z,7.20
2017-12-20T08:38:51.009Z,7.20
2017-12-20T08:41:17.720Z,7.10
2017-12-20T08:43:44.049Z,7.10
2017-12-20T08:46:09.997Z,7.10
2017-12-20T08:48:35.964Z,7.10
2017-12-20T08:51:01.941Z,7.20
2017-12-20T08:53:28.682Z,7.30
2017-12-20T08:55:55.396Z,7.20
2017-12-20T08:58:21.355Z,7.20
2017-12-20T09:00:48.076Z,7.40
2017-12-20T09:03:14.045Z,7.30
2017-12-20T09:05:39.989Z,7.40
2017-12-20T09:08:05.981Z,7.30
2017-12-20T09:10:31.940Z,7.30
2017-12-20T09:12:57.919Z,7.20
2017-12-20T09:15:23.880Z,7.30
2017-12-20T09:17:49.853Z,7.30
2017-12-20T09:20:15.824Z,7.30
2017-12-20T09:22:41.800Z,7.50
2017-12-20T09:25:07.804Z,7.70
2017-12-20T09:27:34.515Z,7.50
2017-12-20T09:30:00.477Z,7.50
2017-12-20T09:32:26.452Z,7.40
2017-12-20T09:34:52.420Z,7.40
2017-12-20T09:37:18.368Z,7.40
2017-12-20T09:39:44.357Z,7.40
2017-12-20T09:42:10.312Z,7.40
2017-12-20T09:44:36.291Z,7.60
2017-12-20T09:47:03.018Z,7.60
2017-12-20T09:49:29.715Z,7.50
2017-12-20T09:51:55.674Z,7.50
2017-12-20T09:54:21.643Z,7.50
2017-12-20T09:56:47.595Z,7.50
2017-12-20T09:59:13.549Z,7.40
2017-12-20T10:01:40.585Z,7.40
2017-12-20T10:04:06.556Z,7.40
2017-12-20T10:06:32.542Z,7.40
2017-12-20T10:08:59.274Z,7.50
2017-12-20T10:11:25.972Z,7.50
2017-12-20T10:13:51.938Z,7.50
2017-12-20T10:16:18.754Z,7.60
2017-12-20T10:18:44.708Z,7.60
2017-12-20T10:21:11.424Z,7.40
2017-12-20T10:23:37.540Z,7.40
2017-12-20T10:26:03.527Z,7.50
2017-12-20T10:28:29.482Z,7.50
2017-12-20T10:30:55.472Z,7.50
2017-12-20T10:33:21.425Z,7.60
2017-12-20T10:35:47.412Z,7.50
2017-12-20T10:38:13.379Z,7.50
2017-12-20T10:40:39.367Z,7.50
2017-12-20T10:43:05.525Z,7.50
2017-12-20T10:45:31.492Z,7.50
2017-12-20T10:47:57.470Z,7.60
2017-12-20T10:50:23.456Z,7.50
2017-12-20T10:52:49.455Z,7.50
2017-12-20T10:55:15.432Z,7.60
2017-12-20T10:57:41.466Z,7.60
2017-12-20T11:00:08.180Z,7.50
2017-12-20T11:02:34.159Z,7.50
2017-12-20T11:05:00.119Z,7.50
2017-12-20T11:07:26.110Z,7.50
2017-12-20T11:09:52.059Z,7.60
2017-12-20T11:12:18.004Z,7.60
2017-12-20T11:14:44.709Z,7.80
2017-12-20T11:17:10.700Z,7.80
2017-12-20T11:19:36.671Z,7.70
2017-12-20T11:22:02.626Z,7.80
2017-12-20T11:24:29.348Z,7.70
2017-12-20T11:26:56.061Z,7.80
2017-12-20T11:29:22.056Z,7.70
2017-12-20T11:31:48.056Z,7.80
2017-12-20T11:34:14.027Z,7.70
2017-12-20T11:36:39.999Z,7.60
2017-12-20T11:39:05.989Z,7.70
2017-12-20T11:41:31.956Z,7.70
2017-12-20T11:43:57.927Z,7.80
2017-12-20T11:46:24.679Z,7.80
2017-12-20T11:48:51.391Z,7.80
2017-12-20T11:51:17.345Z,7.80
2017-12-20T11:53:43.352Z,7.80
2017-12-20T11:56:09.298Z,7.80
2017-12-20T11:58:35.276Z,7.80
2017-12-20T12:01:01.256Z,7.80
2017-12-20T12:03:27.220Z,7.80
2017-12-20T12:05:53.208Z,7.90
2017-12-20T12:08:19.182Z,7.90
2017-12-20T12:10:45.163Z,7.80
2017-12-20T12:13:11.124Z,7.80
2017-12-20T12:15:37.111Z,7.90
2017-12-20T12:18:03.094Z,7.90
2017-12-20T12:20:29.051Z,7.80
2017-12-20T12:22:55.033Z,7.90
2017-12-20T12:25:21.327Z,7.80
2017-12-20T12:27:47.296Z,7.80
2017-12-20T12:30:13.444Z,7.80
2017-12-20T12:32:41.449Z,7.80
2017-12-20T12:35:07.401Z,7.80
2017-12-20T12:37:33.376Z,7.80
2017-12-20T12:39:59.350Z,7.70
2017-12-20T12:42:25.322Z,7.80
2017-12-20T12:44:51.292Z,7.70
2017-12-20T12:47:17.279Z,7.80
2017-12-20T12:49:43.229Z,7.70
2017-12-20T12:52:09.190Z,7.70
2017-12-20T12:54:35.542Z,7.70
2017-12-20T12:57:01.497Z,7.70
2017-12-20T12:59:27.473Z,7.70
2017-12-20T13:01:53.441Z,7.80
2017-12-20T13:04:19.391Z,7.80
2017-12-20T13:06:45.556Z,7.80
2017-12-20T13:09:11.543Z,7.80
2017-12-20T13:11:37.513Z,7.70
2017-12-20T13:14:04.220Z,7.80
2017-12-20T13:16:30.176Z,7.80
2017-12-20T13:18:56.885Z,7.80
2017-12-20T13:21:22.914Z,7.80
2017-12-20T13:23:48.902Z,7.70
2017-12-20T13:26:19.750Z,7.70
2017-12-20T13:28:45.726Z,7.80
2017-12-20T13:31:12.467Z,7.80
2017-12-20T13:33:38.428Z,7.80
2017-12-20T13:36:04.397Z,7.70
2017-12-20T13:38:31.104Z,7.70
2017-12-20T13:40:57.060Z,7.70
2017-12-20T13:43:23.780Z,7.70
2017-12-20T13:45:50.108Z,7.70
2017-12-20T13:48:16.366Z,7.70
2017-12-20T13:50:42.388Z,7.70
2017-12-20T13:53:09.085Z,7.70
2017-12-20T13:55:35.056Z,7.70
2017-12-20T13:58:01.056Z,7.80
2017-12-20T14:00:27.792Z,7.90
2017-12-20T14:02:54.493Z,7.90
2017-12-20T14:05:20.480Z,7.90
2017-12-20T14:07:46.448Z,7.90
2017-12-20T14:10:12.433Z,7.90
2017-12-20T14:12:38.384Z,7.80
2017-12-20T14:15:04.368Z,7.80
2017-12-20T14:17:30.356Z,7.90
2017-12-20T14:19:57.064Z,7.80
2017-12-20T14:22:23.021Z,7.70
2017-12-20T14:24:49.958Z,7.70
2017-12-20T14:27:16.656Z,7.70
2017-12-20T14:29:42.613Z,7.70
2017-12-20T14:32:08.595Z,7.80
2017-12-20T14:34:34.568Z,7.80
2017-12-20T14:37:01.269Z,7.80
2017-12-20T14:39:27.228Z,7.80
2017-12-20T14:41:53.939Z,7.80
2017-12-20T14:44:20.294Z,7.80
2017-12-20T14:46:47.020Z,7.80
2017-12-20T14:49:12.970Z,7.80
2017-12-20T14:51:38.962Z,7.90
2017-12-20T14:54:05.025Z,7.80
2017-12-20T14:56:31.058Z,7.80
2017-12-20T14:58:57.097Z,7.80
2017-12-20T15:01:23.072Z,7.90
2017-12-20T15:03:49.812Z,8.00
2017-12-20T15:06:16.567Z,7.90
2017-12-20T15:08:42.539Z,7.80
2017-12-20T15:11:08.516Z,7.90
2017-12-20T15:13:34.600Z,7.90
2017-12-20T15:16:00.588Z,7.90
2017-12-20T15:18:26.557Z,7.90
2017-12-20T15:20:53.309Z,7.80
2017-12-20T15:23:19.276Z,7.90
2017-12-20T15:25:45.239Z,7.90
2017-12-20T15:28:11.976Z,7.80
2017-12-20T15:30:38.680Z,7.80
2017-12-20T15:33:04.660Z,7.90
2017-12-20T15:35:30.642Z,7.90
2017-12-20T15:38:03.572Z,7.90
2017-12-20T15:40:29.532Z,7.90
2017-12-20T15:42:55.520Z,7.90
2017-12-20T15:45:21.480Z,7.90
2017-12-20T15:47:47.825Z,7.90
2017-12-20T15:50:13.771Z,8.00
2017-12-20T15:52:39.784Z,8.00
2017-12-20T15:55:06.509Z,7.90
2017-12-20T15:57:32.466Z,7.90
2017-12-20T15:59:58.418Z,7.90
2017-12-20T16:02:24.691Z,7.90
2017-12-20T16:04:51.506Z,8.00
2017-12-20T16:07:17.496Z,7.90
2017-12-20T16:09:43.668Z,7.90
2017-12-20T16:12:10.372Z,7.80
2017-12-20T16:14:36.340Z,7.80
2017-12-20T16:17:03.369Z,7.80
2017-12-20T16:19:29.349Z,7.80
2017-12-20T16:21:55.320Z,7.90
2017-12-20T16:24:22.041Z,7.90
2017-12-20T16:26:48.007Z,7.90
2017-12-20T16:29:13.992Z,8.00
2017-12-20T16:31:40.712Z,7.90
2017-12-20T16:34:06.696Z,7.90
2017-12-20T16:36:32.668Z,7.90
2017-12-20T16:38:59.400Z,7.90
2017-12-20T16:41:25.372Z,7.90
2017-12-20T16:43:51.321Z,7.90
2017-12-20T16:46:17.329Z,7.80
2017-12-20T16:48:43.285Z,7.90
2017-12-20T16:51:09.266Z,7.90
2017-12-20T16:53:41.291Z,7.90
2017-12-20T16:56:08.005Z,8.00
2017-12-20T16:58:33.966Z,8.00
2017-12-20T17:01:00.697Z,8.00
2017-12-20T17:03:26.647Z,8.00
2017-12-20T17:05:52.606Z,7.90
2017-12-20T17:08:18.590Z,7.90
2017-12-20T17:10:51.543Z,8.00
2017-12-20T17:13:18.260Z,8.00
2017-12-20T17:15:44.227Z,8.00
2017-12-20T17:18:10.227Z,8.00
2017-12-20T17:20:36.981Z,8.00
2017-12-20T17:23:02.936Z,7.90
2017-12-20T17:25:28.900Z,8.00
2017-12-20T17:27:55.127Z,8.00
2017-12-20T17:30:21.143Z,8.00
2017-12-20T17:32:47.112Z,7.90
2017-12-20T17:35:13.084Z,7.90
2017-12-20T17:37:39.037Z,7.90
2017-12-20T17:40:04.992Z,8.00
2017-12-20T17:42:31.356Z,8.00
2017-12-20T17:44:57.338Z,8.00
2017-12-20T17:47:23.319Z,7.90
2017-12-20T17:49:50.054Z,7.90
2017-12-20T17:52:16.759Z,7.90
2017-12-20T17:54:42.725Z,7.90
2017-12-20T17:57:09.513Z,7.80
2017-12-20T17:59:35.480Z,7.80
2017-12-20T18:02:02.204Z,7.80
2017-12-20T18:04:28.209Z,7.80
2017-12-20T18:06:54.161Z,7.80
2017-12-20T18:09:20.867Z,7.80
2017-12-20T18:11:46.831Z,7.80
2017-12-20T18:14:12.817Z,7.80
2017-12-20T18:16:39.557Z,7.80
2017-12-20T18:19:05.736Z,7.70
2017-12-20T18:21:31.684Z,7.70
2017-12-20T18:23:57.944Z,7.80
2017-12-20T18:26:23.928Z,7.70
2017-12-20T18:28:49.889Z,7.70
2017-12-20T18:31:18.412Z,7.70
2017-12-20T18:33:44.392Z,7.70
2017-12-20T18:36:11.106Z,7.80
2017-12-20T18:38:37.087Z,7.80
2017-12-20T18:41:03.089Z,7.80
2017-12-20T18:43:29.833Z,7.70
2017-12-20T18:45:55.893Z,7.70
2017-12-20T18:48:25.492Z,7.70
2017-12-20T18:50:51.529Z,7.70
2017-12-20T18:53:17.496Z,7.70
2017-12-20T18:55:44.228Z,7.70
2017-12-20T18:58:10.956Z,7.70
2017-12-20T19:00:36.950Z,7.70
2017-12-20T19:03:02.916Z,7.70
2017-12-20T19:05:30.452Z,7.60
2017-12-20T19:07:56.428Z,7.60
2017-12-20T19:10:22.421Z,7.60
2017-12-20T19:12:49.138Z,7.70
2017-12-20T19:15:15.145Z,7.70
2017-12-20T19:17:42.014Z,7.60
2017-12-20T19:20:08.720Z,7.50
2017-12-20T19:22:34.700Z,7.50
2017-12-20T19:25:08.486Z,7.50
2017-12-20T19:27:35.188Z,7.60
2017-12-20T19:30:01.157Z,7.70
2017-12-20T19:32:27.194Z,7.60
2017-12-20T19:34:53.901Z,7.60
2017-12-20T19:37:20.665Z,7.60
2017-12-20T19:39:46.620Z,7.60
2017-12-20T19:42:12.634Z,7.60
2017-12-20T19:44:38.601Z,7.60
2017-12-20T19:47:05.321Z,7.60
2017-12-20T19:49:31.305Z,7.60
2017-12-20T19:51:57.291Z,7.60
2017-12-20T19:54:24.024Z,7.60
2017-12-20T19:56:50.731Z,7.60
2017-12-20T19:59:16.741Z,7.60
2017-12-20T20:01:42.720Z,7.60
2017-12-20T20:04:09.421Z,7.60
2017-12-20T20:06:35.381Z,7.60
2017-12-20T20:09:02.126Z,7.70
2017-12-20T20:11:28.099Z,7.70
2017-12-20T20:13:54.071Z,7.70
2017-12-20T20:16:20.055Z,7.70
2017-12-20T20:18:46.023Z,7.70
2017-12-20T20:21:12.040Z,7.60
2017-12-20T20:23:37.997Z,7.60
2017-12-20T20:26:03.968Z,7.60
2017-12-20T20:28:30.664Z,7.60
2017-12-20T20:30:56.624Z,7.50
2017-12-20T20:33:24.464Z,7.40
2017-12-20T20:35:50.433Z,7.40
2017-12-20T20:38:16.384Z,7.30
2017-12-20T20:40:42.369Z,7.40
2017-12-20T20:43:08.361Z,7.40
2017-12-20T20:45:34.326Z,7.40
2017-12-20T20:48:00.337Z,7.60
2017-12-20T20:50:26.336Z,7.60
2017-12-20T20:52:53.056Z,7.40
2017-12-20T20:55:19.050Z,7.40
2017-12-20T20:57:45.041Z,7.50
2017-12-20T21:00:10.997Z,7.50
2017-12-20T21:02:36.964Z,7.50
2017-12-20T21:05:03.660Z,7.50
2017-12-20T21:07:29.633Z,7.50
2017-12-20T21:09:55.594Z,7.40
2017-12-20T21:12:21.584Z,7.40
2017-12-20T21:14:47.562Z,7.50
2017-12-20T21:17:13.537Z,7.50
2017-12-20T21:19:39.504Z,7.50
2017-12-20T21:22:06.970Z,7.60
2017-12-20T21:24:35.076Z,7.60
2017-12-20T21:27:01.045Z,7.60
2017-12-20T21:29:27.008Z,7.60
2017-12-20T21:31:53.735Z,7.80
2017-12-20T21:34:20.433Z,7.70
2017-12-20T21:36:46.464Z,7.70
2017-12-20T21:39:12.769Z,7.60
2017-12-20T21:41:38.741Z,7.60
2017-12-20T21:44:05.457Z,7.70
2017-12-20T21:46:31.409Z,7.70
2017-12-20T21:48:58.128Z,7.50
2017-12-20T21:51:24.084Z,7.50
2017-12-20T21:53:50.048Z,7.60
2017-12-20T21:56:16.916Z,7.50
2017-12-20T21:58:42.867Z,7.60
2017-12-20T22:01:08.827Z,7.50
2017-12-20T22:03:34.784Z,7.50
2017-12-20T22:06:00.792Z,7.60
2017-12-20T22:08:26.826Z,7.50
2017-12-20T22:10:53.543Z,7.60
2017-12-20T22:13:19.516Z,7.60
2017-12-20T22:15:45.511Z,7.50
2017-12-20T22:18:12.208Z,7.50
2017-12-20T22:20:38.242Z,7.50
2017-12-20T22:23:04.492Z,7.60
2017-12-20T22:25:30.441Z,7.60
2017-12-20T22:27:56.420Z,7.60
2017-12-20T22:30:22.578Z,7.60
2017-12-20T22:32:49.303Z,7.50
2017-12-20T22:35:15.260Z,7.50
2017-12-20T22:37:41.257Z,7.50
2017-12-20T22:40:07.952Z,7.50
2017-12-20T22:42:33.917Z,7.50
2017-12-20T22:45:00.967Z,7.40
2017-12-20T22:47:26.928Z,7.40
2017-12-20T22:49:52.884Z,7.40
2017-12-20T22:52:19.828Z,7.40
2017-12-20T22:54:45.804Z,7.40
2017-12-20T22:57:11.756Z,7.50
2017-12-20T22:59:37.753Z,7.40
2017-12-20T23:02:03.711Z,7.50
2017-12-20T23:04:29.664Z,7.50
2017-12-20T23:06:56.384Z,7.60
2017-12-20T23:09:23.096Z,7.50
2017-12-20T23:11:49.084Z,7.50
2017-12-20T23:14:15.058Z,7.60
2017-12-20T23:16:41.003Z,7.50
2017-12-20T23:19:07.704Z,7.60
2017-12-20T23:21:34.244Z,7.60
2017-12-20T23:24:00.221Z,7.50
2017-12-20T23:26:26.167Z,7.60
2017-12-20T23:28:52.128Z,7.60
2017-12-20T23:31:19.056Z,7.70
2017-12-20T23:33:45.024Z,7.70
2017-12-20T23:36:10.988Z,7.70
2017-12-20T23:38:37.350Z,7.60
2017-12-20T23:41:04.076Z,7.70
2017-12-20T23:43:30.771Z,7.70
2017-12-20T23:45:56.767Z,7.70
2017-12-20T23:48:22.725Z,7.70
2017-12-20T23:50:48.682Z,7.70
2017-12-20T23:53:15.375Z,7.70
2017-12-20T23:55:41.353Z,7.70
2017-12-20T23:58:08.060Z,7.70
